Time;durP1;ratioP1;P1;durP2;ratioP2;P2;SDS_P1;SDS_P2;PMS_P1;PMS_P2;Temp;Humidity;BMP_temperature;BMP_pressure;BME280_temperature;BME280_humidity;BME280_pressure;Samples;Min_cycle;Max_cycle;Signal;HPM_P1;HPM_P2
2024/01/21 00:00:56;;;;;;;1999.90;999.90;;;;;;;;;;5080790;28;20052;-86
2024/01/21 00:03:23;;;;;;;1999.90;999.90;;;;;;;;;;5081731;28;20051;-86
2024/01/21 00:05:51;;;;;;;1999.90;999.90;;;;;;;;;;5077681;28;20567;-84
2024/01/21 00:08:17;;;;;;;1999.90;999.90;;;;;;;;;;5080966;28;20135;-84
2024/01/21 00:10:44;;;;;;;1999.90;999.90;;;;;;;;;;5071128;28;20047;-84
2024/01/21 00:13:10;;;;;;;1999.90;999.90;;;;;;;;;;5081236;28;20450;-84
2024/01/21 00:15:37;;;;;;;1999.90;999.90;;;;;;;;;;5079995;28;20519;-85
2024/01/21 00:18:04;;;;;;;1999.90;999.90;;;;;;;;;;5071225;28;20052;-84
2024/01/21 00:20:32;;;;;;;1999.90;999.90;;;;;;;;;;5079556;28;20044;-85
2024/01/21 00:23:00;;;;;;;1999.90;999.90;;;;;;;;;;5079238;28;20051;-84
2024/01/21 00:25:27;;;;;;;1999.90;999.90;;;;;;;;;;5072021;28;20051;-86
2024/01/21 00:27:53;;;;;;;1999.90;999.90;;;;;;;;;;5084302;28;20064;-84
2024/01/21 00:30:20;;;;;;;1999.90;999.90;;;;;;;;;;5077844;28;20041;-84
2024/01/21 00:32:46;;;;;;;1999.90;999.90;;;;;;;;;;5081909;28;20094;-84
2024/01/21 00:35:13;;;;;;;1999.90;999.90;;;;;;;;;;5087084;28;20052;-85
2024/01/21 00:37:39;;;;;;;1999.90;999.90;;;;;;;;;;5081658;28;20048;-84
2024/01/21 00:40:09;;;;;;;1999.90;999.90;;;;;;;;;;5080330;28;20048;-85
2024/01/21 00:42:35;;;;;;;1999.90;999.90;;;;;;;;;;5073264;28;20056;-85
2024/01/21 00:45:02;;;;;;;1999.90;999.90;;;;;;;;;;5079128;28;20499;-84
2024/01/21 00:47:29;;;;;;;1999.90;999.90;;;;;;;;;;5072858;28;20055;-85
2024/01/21 00:50:01;;;;;;;1999.90;999.90;;;;;;;;;;5076586;28;20055;-85
2024/01/21 00:52:27;;;;;;;1999.90;999.90;;;;;;;;;;5092409;28;20088;-84
2024/01/21 00:54:54;;;;;;;1999.90;999.90;;;;;;;;;;5075677;28;20036;-87
2024/01/21 00:57:22;;;;;;;1999.90;999.90;;;;;;;;;;5082067;28;20047;-84
2024/01/21 00:59:48;;;;;;;1999.90;999.90;;;;;;;;;;5079822;28;20049;-84
2024/01/21 01:02:15;;;;;;;1999.90;999.90;;;;;;;;;;5083045;28;20056;-85
2024/01/21 01:04:42;;;;;;;1999.90;999.90;;;;;;;;;;5068991;28;20052;-84
2024/01/21 01:07:08;;;;;;;1999.90;999.90;;;;;;;;;;5077426;28;20072;-86
2024/01/21 01:09:36;;;;;;;1999.90;999.90;;;;;;;;;;5086574;28;20040;-87
2024/01/21 01:12:02;;;;;;;1999.90;999.90;;;;;;;;;;5077475;28;20073;-85
2024/01/21 01:14:30;;;;;;;1999.90;999.90;;;;;;;;;;5077894;28;20044;-84
2024/01/21 01:16:57;;;;;;;1999.90;999.90;;;;;;;;;;5075136;28;20076;-87
2024/01/21 01:19:24;;;;;;;1999.90;999.90;;;;;;;;;;5076309;28;20051;-85
2024/01/21 01:21:51;;;;;;;1999.90;999.90;;;;;;;;;;5066333;28;20405;-84
2024/01/21 01:24:19;;;;;;;1999.90;999.90;;;;;;;;;;5082618;28;20044;-85
2024/01/21 01:26:46;;;;;;;1999.90;999.90;;;;;;;;;;5079537;28;20048;-85
2024/01/21 01:29:12;;;;;;;1999.90;999.90;;;;;;;;;;5077563;28;20045;-85
2024/01/21 01:31:42;;;;;;;1999.90;999.90;;;;;;;;;;5073011;28;20055;-86
2024/01/21 01:34:10;;;;;;;1999.90;999.90;;;;;;;;;;5089351;28;20109;-84
2024/01/21 01:36:37;;;;;;;1999.90;999.90;;;;;;;;;;5074733;28;20040;-87
2024/01/21 01:39:03;;;;;;;1999.90;999.90;;;;;;;;;;5072753;28;20080;-83
2024/01/21 01:41:30;;;;;;;1999.90;999.90;;;;;;;;;;5075271;28;20417;-84
2024/01/21 01:43:56;;;;;;;1999.90;999.90;;;;;;;;;;5080480;28;20096;-84
2024/01/21 01:46:23;;;;;;;1999.90;999.90;;;;;;;;;;5079842;28;20041;-84
2024/01/21 01:48:51;;;;;;;1999.90;999.90;;;;;;;;;;5075760;28;20040;-86
2024/01/21 01:51:18;;;;;;;1999.90;999.90;;;;;;;;;;5072717;28;20377;-84
2024/01/21 01:53:45;;;;;;;1999.90;999.90;;;;;;;;;;5074878;28;20047;-85
2024/01/21 01:56:12;;;;;;;1999.90;999.90;;;;;;;;;;5077462;28;20037;-83
2024/01/21 01:58:39;;;;;;;1999.90;999.90;;;;;;;;;;5076872;28;20110;-84
2024/01/21 02:01:05;;;;;;;1999.90;999.90;;;;;;;;;;5080192;28;20060;-84
2024/01/21 02:03:32;;;;;;;1999.90;999.90;;;;;;;;;;5063424;28;20051;-85
2024/01/21 02:06:00;;;;;;;1999.90;999.90;;;;;;;;;;5071114;28;20048;-85
2024/01/21 02:08:26;;;;;;;1999.90;999.90;;;;;;;;;;5077430;28;20421;-84
2024/01/21 02:10:53;;;;;;;1999.90;999.90;;;;;;;;;;5072940;28;20047;-87
2024/01/21 02:13:20;;;;;;;1999.90;999.90;;;;;;;;;;5081935;28;20072;-84
2024/01/21 02:15:47;;;;;;;1999.90;999.90;;;;;;;;;;5081189;28;20052;-84
2024/01/21 02:18:13;;;;;;;1999.90;999.90;;;;;;;;;;5073703;28;20504;-85
2024/01/21 02:20:45;;;;;;;1999.90;999.90;;;;;;;;;;5078960;28;20453;-84
2024/01/21 02:23:13;;;;;;;1999.90;999.90;;;;;;;;;;5072266;28;20044;-85
2024/01/21 02:25:40;;;;;;;1999.90;999.90;;;;;;;;;;5062819;28;20044;-84
2024/01/21 02:28:06;;;;;;;1999.90;999.90;;;;;;;;;;5074012;28;20481;-84
2024/01/21 02:30:36;;;;;;;1999.90;999.90;;;;;;;;;;5086999;28;20044;-85
2024/01/21 02:33:03;;;;;;;1999.90;999.90;;;;;;;;;;5083593;28;20054;-84
2024/01/21 02:35:30;;;;;;;1999.90;999.90;;;;;;;;;;5075359;28;20044;-84
2024/01/21 02:37:56;;;;;;;1999.90;999.90;;;;;;;;;;5079947;28;20052;-85
2024/01/21 02:40:24;;;;;;;1999.90;999.90;;;;;;;;;;5076833;28;20428;-84
2024/01/21 02:42:51;;;;;;;1999.90;999.90;;;;;;;;;;5069030;28;20140;-84
2024/01/21 02:45:17;;;;;;;1999.90;999.90;;;;;;;;;;5072188;28;20055;-84
2024/01/21 02:47:44;;;;;;;1999.90;999.90;;;;;;;;;;5074059;28;20040;-84
2024/01/21 02:50:10;;;;;;;1999.90;999.90;;;;;;;;;;5077091;28;20371;-84
2024/01/21 02:52:37;;;;;;;1999.90;999.90;;;;;;;;;;5081092;28;20560;-85
2024/01/21 02:55:04;;;;;;;1999.90;999.90;;;;;;;;;;5088721;28;20127;-84
2024/01/21 02:57:32;;;;;;;1999.90;999.90;;;;;;;;;;5077290;28;20131;-86
2024/01/21 02:59:58;;;;;;;1999.90;999.90;;;;;;;;;;5080318;28;20135;-84
2024/01/21 03:02:25;;;;;;;1999.90;999.90;;;;;;;;;;5079826;28;20127;-84
2024/01/21 03:04:51;;;;;;;1999.90;999.90;;;;;;;;;;5072601;28;20076;-86
2024/01/21 03:07:18;;;;;;;1999.90;999.90;;;;;;;;;;5073020;28;20045;-84
2024/01/21 03:09:44;;;;;;;1999.90;999.90;;;;;;;;;;5064644;28;20049;-84
2024/01/21 03:12:11;;;;;;;1999.90;999.90;;;;;;;;;;5070044;28;20052;-84
2024/01/21 03:14:39;;;;;;;1999.90;999.90;;;;;;;;;;5082633;28;20051;-85
2024/01/21 03:17:05;;;;;;;1999.90;999.90;;;;;;;;;;5083225;28;20055;-84
2024/01/21 03:19:32;;;;;;;1999.90;999.90;;;;;;;;;;5086201;28;20049;-83
2024/01/21 03:21:58;;;;;;;1999.90;999.90;;;;;;;;;;5079715;28;20043;-83
2024/01/21 03:24:25;;;;;;;1999.90;999.90;;;;;;;;;;5076400;28;20481;-86
2024/01/21 03:26:51;;;;;;;1999.90;999.90;;;;;;;;;;5080772;28;20382;-91
2024/01/21 03:29:18;;;;;;;1999.90;999.90;;;;;;;;;;5078440;28;20045;-84
2024/01/21 03:31:46;;;;;;;1999.90;999.90;;;;;;;;;;5061494;28;20048;-84
2024/01/21 03:34:13;;;;;;;1999.90;999.90;;;;;;;;;;5083803;28;20045;-84
2024/01/21 03:36:39;;;;;;;1999.90;999.90;;;;;;;;;;5077340;28;20048;-86
2024/01/21 03:39:06;;;;;;;1999.90;999.90;;;;;;;;;;5085750;28;20052;-84
2024/01/21 03:41:32;;;;;;;1999.90;999.90;;;;;;;;;;5074247;28;20044;-85
2024/01/21 03:43:59;;;;;;;1999.90;999.90;;;;;;;;;;5075544;28;20036;-84
2024/01/21 03:46:26;;;;;;;1999.90;999.90;;;;;;;;;;5074898;28;20048;-84
2024/01/21 03:48:53;;;;;;;1999.90;999.90;;;;;;;;;;5083989;28;20044;-84
2024/01/21 03:51:20;;;;;;;1999.90;999.90;;;;;;;;;;5070291;28;20052;-84
2024/01/21 03:53:46;;;;;;;1999.90;999.90;;;;;;;;;;5074356;28;20051;-85
2024/01/21 03:56:17;;;;;;;1999.90;999.90;;;;;;;;;;5074148;28;20060;-84
2024/01/21 03:58:44;;;;;;;1999.90;999.90;;;;;;;;;;5084543;28;20101;-84
2024/01/21 04:01:11;;;;;;;1999.90;999.90;;;;;;;;;;5070299;28;20044;-84
2024/01/21 04:03:37;;;;;;;1999.90;999.90;;;;;;;;;;5080815;28;20048;-86
2024/01/21 04:06:05;;;;;;;1999.90;999.90;;;;;;;;;;5080873;28;20044;-84
2024/01/21 04:08:32;;;;;;;1999.90;999.90;;;;;;;;;;5069364;28;20045;-87
2024/01/21 04:10:58;;;;;;;1999.90;999.90;;;;;;;;;;5080041;28;20041;-84
2024/01/21 04:13:25;;;;;;;1999.90;999.90;;;;;;;;;;5077023;28;20055;-84
2024/01/21 04:15:51;;;;;;;1999.90;999.90;;;;;;;;;;5079380;28;20044;-84
2024/01/21 04:18:18;;;;;;;1999.90;999.90;;;;;;;;;;5073015;28;20037;-86
2024/01/21 04:20:44;;;;;;;1999.90;999.90;;;;;;;;;;5075232;28;20392;-84
2024/01/21 04:23:12;;;;;;;1999.90;999.90;;;;;;;;;;5079824;28;20036;-84
2024/01/21 04:25:38;;;;;;;1999.90;999.90;;;;;;;;;;5075981;28;20040;-84
2024/01/21 04:28:05;;;;;;;1999.90;999.90;;;;;;;;;;5075929;28;20484;-84
2024/01/21 04:30:32;;;;;;;1999.90;999.90;;;;;;;;;;5080301;28;20044;-87
2024/01/21 04:32:58;;;;;;;1999.90;999.90;;;;;;;;;;5074613;28;20048;-84
2024/01/21 04:35:25;;;;;;;1999.90;999.90;;;;;;;;;;5081219;28;20052;-85
2024/01/21 04:37:51;;;;;;;1999.90;999.90;;;;;;;;;;5075493;28;20052;-85
2024/01/21 04:40:19;;;;;;;1999.90;999.90;;;;;;;;;;5080762;28;20049;-84
2024/01/21 04:42:46;;;;;;;1999.90;999.90;;;;;;;;;;5072079;28;20076;-84
2024/01/21 04:45:14;;;;;;;1999.90;999.90;;;;;;;;;;5076541;28;20052;-87
2024/01/21 04:47:41;;;;;;;1999.90;999.90;;;;;;;;;;5081419;28;20492;-85
2024/01/21 04:50:07;;;;;;;1999.90;999.90;;;;;;;;;;5075751;28;20049;-84
2024/01/21 04:52:34;;;;;;;1999.90;999.90;;;;;;;;;;5078887;28;20044;-85
2024/01/21 04:55:00;;;;;;;1999.90;999.90;;;;;;;;;;5061438;28;20485;-84
2024/01/21 04:57:28;;;;;;;1999.90;999.90;;;;;;;;;;5084785;28;20059;-84
2024/01/21 04:59:55;;;;;;;1999.90;999.90;;;;;;;;;;5079078;28;20056;-85
2024/01/21 05:02:22;;;;;;;1999.90;999.90;;;;;;;;;;5081776;28;20074;-84
2024/01/21 05:04:48;;;;;;;1999.90;999.90;;;;;;;;;;5068078;28;20500;-84
2024/01/21 05:07:15;;;;;;;1999.90;999.90;;;;;;;;;;5048334;28;20060;-84
2024/01/21 05:09:41;;;;;;;1999.90;999.90;;;;;;;;;;5057100;28;20045;-85
2024/01/21 05:12:08;;;;;;;1999.90;999.90;;;;;;;;;;5065149;28;20044;-84
2024/01/21 05:14:36;;;;;;;1999.90;999.90;;;;;;;;;;5052594;28;20041;-84
2024/01/21 05:17:03;;;;;;;1999.90;999.90;;;;;;;;;;5053714;28;20055;-84
2024/01/21 05:19:29;;;;;;;1999.90;999.90;;;;;;;;;;5069525;28;20051;-85
2024/01/21 05:21:56;;;;;;;1999.90;999.90;;;;;;;;;;5062088;28;20489;-88
2024/01/21 05:24:22;;;;;;;1999.90;999.90;;;;;;;;;;5064549;28;20040;-89
2024/01/21 05:26:49;;;;;;;1999.90;999.90;;;;;;;;;;5061591;28;20480;-87
2024/01/21 05:29:16;;;;;;;1999.90;999.90;;;;;;;;;;5057948;28;20501;-84
2024/01/21 05:31:43;;;;;;;1999.90;999.90;;;;;;;;;;5052165;28;20102;-84
2024/01/21 05:34:10;;;;;;;1999.90;999.90;;;;;;;;;;5055064;28;20053;-85
2024/01/21 05:36:36;;;;;;;1999.90;999.90;;;;;;;;;;5064674;28;20454;-84
2024/01/21 05:39:04;;;;;;;1999.90;999.90;;;;;;;;;;5061588;28;20056;-84
2024/01/21 05:41:30;;;;;;;1999.90;999.90;;;;;;;;;;5050208;28;20045;-83
2024/01/21 05:43:57;;;;;;;1999.90;999.90;;;;;;;;;;5052228;28;20168;-83
2024/01/21 05:46:23;;;;;;;1999.90;999.90;;;;;;;;;;5053772;28;20418;-86
2024/01/21 05:48:56;;;;;;;1999.90;999.90;;;;;;;;;;5055539;28;20059;-83
2024/01/21 05:51:23;;;;;;;1999.90;999.90;;;;;;;;;;5060180;28;20401;-84
2024/01/21 05:53:50;;;;;;;1999.90;999.90;;;;;;;;;;5051400;28;20059;-84
2024/01/21 05:56:18;;;;;;;1999.90;999.90;;;;;;;;;;5063045;28;20059;-84
2024/01/21 05:58:44;;;;;;;1999.90;999.90;;;;;;;;;;5051717;28;20410;-83
2024/01/21 06:01:11;;;;;;;1999.90;999.90;;;;;;;;;;5056259;28;20051;-84
2024/01/21 06:03:37;;;;;;;1999.90;999.90;;;;;;;;;;5061142;28;20044;-84
2024/01/21 06:06:05;;;;;;;1999.90;999.90;;;;;;;;;;5078312;28;20052;-84
2024/01/21 06:08:32;;;;;;;1999.90;999.90;;;;;;;;;;5076134;28;20056;-84
2024/01/21 06:10:58;;;;;;;1999.90;999.90;;;;;;;;;;5075838;28;20062;-84
2024/01/21 06:13:25;;;;;;;1999.90;999.90;;;;;;;;;;5085087;28;20044;-84
2024/01/21 06:15:51;;;;;;;1999.90;999.90;;;;;;;;;;5074817;28;20047;-84
2024/01/21 06:18:18;;;;;;;1999.90;999.90;;;;;;;;;;5074909;28;20036;-85
2024/01/21 06:20:50;;;;;;;1999.90;999.90;;;;;;;;;;5070092;28;20056;-83
2024/01/21 06:23:18;;;;;;;1999.90;999.90;;;;;;;;;;5068569;28;20053;-83
2024/01/21 06:25:45;;;;;;;1999.90;999.90;;;;;;;;;;5078873;28;20146;-83
2024/01/21 06:28:12;;;;;;;1999.90;999.90;;;;;;;;;;5068489;28;20048;-85
2024/01/21 06:30:38;;;;;;;1999.90;999.90;;;;;;;;;;5081171;28;20048;-85
2024/01/21 06:33:06;;;;;;;1999.90;999.90;;;;;;;;;;5059306;28;20497;-84
2024/01/21 06:35:32;;;;;;;1999.90;999.90;;;;;;;;;;5079585;28;20086;-85
2024/01/21 06:37:59;;;;;;;1999.90;999.90;;;;;;;;;;5079750;28;20446;-84
2024/01/21 06:40:27;;;;;;;1999.90;999.90;;;;;;;;;;5080395;28;20052;-85
2024/01/21 06:42:54;;;;;;;1999.90;999.90;;;;;;;;;;5074074;28;20072;-84
2024/01/21 06:45:20;;;;;;;1999.90;999.90;;;;;;;;;;5075634;28;20059;-83
2024/01/21 06:47:46;;;;;;;1999.90;999.90;;;;;;;;;;5076127;28;20055;-84
2024/01/21 06:50:13;;;;;;;1999.90;999.90;;;;;;;;;;5074206;28;20062;-84
2024/01/21 06:52:40;;;;;;;1999.90;999.90;;;;;;;;;;5067626;28;20051;-84
2024/01/21 06:55:07;;;;;;;1999.90;999.90;;;;;;;;;;5073208;28;20055;-84
2024/01/21 06:57:35;;;;;;;1999.90;999.90;;;;;;;;;;5072453;28;20052;-84
2024/01/21 07:00:05;;;;;;;1999.90;999.90;;;;;;;;;;5072528;28;20060;-87
2024/01/21 07:02:32;;;;;;;1999.90;999.90;;;;;;;;;;5073054;28;20436;-84
2024/01/21 07:04:58;;;;;;;1999.90;999.90;;;;;;;;;;5076516;28;20139;-84
2024/01/21 07:07:25;;;;;;;1999.90;999.90;;;;;;;;;;5078254;28;20047;-86
2024/01/21 07:09:51;;;;;;;1999.90;999.90;;;;;;;;;;5078035;28;20135;-86
2024/01/21 07:12:18;;;;;;;1999.90;999.90;;;;;;;;;;5077421;28;20511;-84
2024/01/21 07:14:46;;;;;;;1999.90;999.90;;;;;;;;;;5073537;28;20056;-85
2024/01/21 07:17:12;;;;;;;1999.90;999.90;;;;;;;;;;5074130;28;20059;-85
2024/01/21 07:19:39;;;;;;;1999.90;999.90;;;;;;;;;;5072978;28;20496;-85
2024/01/21 07:22:05;;;;;;;1999.90;999.90;;;;;;;;;;5076710;28;20052;-84
2024/01/21 07:24:32;;;;;;;1999.90;999.90;;;;;;;;;;5076071;28;20047;-89
2024/01/21 07:26:58;;;;;;;1999.90;999.90;;;;;;;;;;5075669;28;20051;-85
2024/01/21 07:29:25;;;;;;;1999.90;999.90;;;;;;;;;;5071820;28;20051;-84
2024/01/21 07:31:52;;;;;;;1999.90;999.90;;;;;;;;;;5079158;28;20481;-85
2024/01/21 07:34:22;;;;;;;1999.90;999.90;;;;;;;;;;5072695;28;20049;-84
2024/01/21 07:36:49;;;;;;;1999.90;999.90;;;;;;;;;;5073318;28;20048;-86
2024/01/21 07:39:15;;;;;;;1999.90;999.90;;;;;;;;;;5081774;28;20051;-85
2024/01/21 07:41:42;;;;;;;1999.90;999.90;;;;;;;;;;5091025;28;20048;-86
2024/01/21 07:44:09;;;;;;;1999.90;999.90;;;;;;;;;;5081050;28;20044;-86
2024/01/21 07:46:35;;;;;;;1999.90;999.90;;;;;;;;;;5077988;28;20047;-86
2024/01/21 07:49:03;;;;;;;1999.90;999.90;;;;;;;;;;5069561;28;20478;-86
2024/01/21 07:51:30;;;;;;;1999.90;999.90;;;;;;;;;;5089386;28;20473;-85
2024/01/21 07:53:56;;;;;;;1999.90;999.90;;;;;;;;;;5080141;28;20059;-85
2024/01/21 07:56:23;;;;;;;1999.90;999.90;;;;;;;;;;5070598;28;20045;-85
2024/01/21 07:58:49;;;;;;;1999.90;999.90;;;;;;;;;;5076648;28;20408;-85
2024/01/21 08:01:20;;;;;;;1999.90;999.90;;;;;;;;;;5077519;28;20052;-85
2024/01/21 08:03:47;;;;;;;1999.90;999.90;;;;;;;;;;5077598;28;20067;-86
2024/01/21 08:06:15;;;;;;;1999.90;999.90;;;;;;;;;;5084038;28;20044;-86
2024/01/21 08:08:41;;;;;;;1999.90;999.90;;;;;;;;;;5074596;28;20433;-85
2024/01/21 08:11:08;;;;;;;1999.90;999.90;;;;;;;;;;5077244;28;20048;-86
2024/01/21 08:13:34;;;;;;;1999.90;999.90;;;;;;;;;;5081331;28;20048;-85
2024/01/21 08:16:01;;;;;;;1999.90;999.90;;;;;;;;;;5069990;28;20045;-85
2024/01/21 08:18:27;;;;;;;1999.90;999.90;;;;;;;;;;5084233;28;20040;-84
2024/01/21 08:20:54;;;;;;;1999.90;999.90;;;;;;;;;;5078511;28;20511;-85
2024/01/21 08:23:22;;;;;;;1999.90;999.90;;;;;;;;;;5078278;28;20055;-85
2024/01/21 08:25:48;;;;;;;1999.90;999.90;;;;;;;;;;5080506;28;20081;-85
2024/01/21 08:28:15;;;;;;;1999.90;999.90;;;;;;;;;;5077128;28;20044;-85
2024/01/21 08:30:41;;;;;;;1999.90;999.90;;;;;;;;;;5088886;28;20044;-85
2024/01/21 08:33:09;;;;;;;1999.90;999.90;;;;;;;;;;5080476;28;20082;-85
2024/01/21 08:35:36;;;;;;;1999.90;999.90;;;;;;;;;;5079883;28;20093;-87
2024/01/21 08:38:02;;;;;;;1999.90;999.90;;;;;;;;;;5076614;28;20051;-85
2024/01/21 08:40:31;;;;;;;1999.90;999.90;;;;;;;;;;5071805;28;20136;-85
2024/01/21 08:42:57;;;;;;;1999.90;999.90;;;;;;;;;;5057237;28;20040;-88
2024/01/21 08:45:24;;;;;;;1999.90;999.90;;;;;;;;;;5081163;28;20044;-86
2024/01/21 08:47:51;;;;;;;1999.90;999.90;;;;;;;;;;5084262;28;20048;-85
2024/01/21 08:50:17;;;;;;;1999.90;999.90;;;;;;;;;;5078719;28;20496;-87
2024/01/21 08:52:44;;;;;;;1999.90;999.90;;;;;;;;;;5078236;28;20067;-86
2024/01/21 08:55:10;;;;;;;1999.90;999.90;;;;;;;;;;5082192;28;20040;-86
2024/01/21 08:57:39;;;;;;;1999.90;999.90;;;;;;;;;;5075127;28;20051;-86
2024/01/21 09:00:07;;;;;;;1999.90;999.90;;;;;;;;;;5082052;28;20159;-87
2024/01/21 09:02:33;;;;;;;1999.90;999.90;;;;;;;;;;5062208;28;20055;-87
2024/01/21 09:05:00;;;;;;;1999.90;999.90;;;;;;;;;;5068689;28;20511;-89
2024/01/21 09:07:27;;;;;;;1999.90;999.90;;;;;;;;;;5073503;28;20156;-87
2024/01/21 09:09:54;;;;;;;1999.90;999.90;;;;;;;;;;5073080;28;20413;-88
2024/01/21 09:12:21;;;;;;;1999.90;999.90;;;;;;;;;;5075754;28;20041;-88
2024/01/21 09:14:48;;;;;;;1999.90;999.90;;;;;;;;;;5082621;28;20067;-87
2024/01/21 09:17:15;;;;;;;1999.90;999.90;;;;;;;;;;5073667;28;20052;-87
2024/01/21 09:19:43;;;;;;;1999.90;999.90;;;;;;;;;;5087752;28;20048;-88
2024/01/21 09:22:10;;;;;;;1999.90;999.90;;;;;;;;;;5078093;28;20094;-88
2024/01/21 09:24:37;;;;;;;1999.90;999.90;;;;;;;;;;5073579;28;20478;-89
2024/01/21 09:27:03;;;;;;;1999.90;999.90;;;;;;;;;;5078623;28;20048;-88
2024/01/21 09:29:30;;;;;;;1999.90;999.90;;;;;;;;;;5076400;28;20045;-88
2024/01/21 09:31:58;;;;;;;1999.90;999.90;;;;;;;;;;5082791;28;20059;-88
2024/01/21 09:34:25;;;;;;;1999.90;999.90;;;;;;;;;;5077078;28;20123;-88
2024/01/21 09:36:52;;;;;;;1999.90;999.90;;;;;;;;;;5081025;28;20044;-88
2024/01/21 09:39:19;;;;;;;1999.90;999.90;;;;;;;;;;5072637;28;20076;-88
2024/01/21 09:41:49;;;;;;;1999.90;999.90;;;;;;;;;;5078175;28;20040;-87
2024/01/21 09:44:16;;;;;;;1999.90;999.90;;;;;;;;;;5076716;28;20051;-88
2024/01/21 09:46:43;;;;;;;1999.90;999.90;;;;;;;;;;5083023;28;20036;-88
2024/01/21 09:49:11;;;;;;;1999.90;999.90;;;;;;;;;;5078791;28;20083;-88
2024/01/21 09:51:38;;;;;;;1999.90;999.90;;;;;;;;;;5076342;28;20053;-91
2024/01/21 09:54:06;;;;;;;1999.90;999.90;;;;;;;;;;5075607;28;20044;-88
2024/01/21 09:56:33;;;;;;;1999.90;999.90;;;;;;;;;;5074957;28;20078;-88
2024/01/21 09:59:00;;;;;;;1999.90;999.90;;;;;;;;;;5081506;28;20051;-88
2024/01/21 10:01:26;;;;;;;1999.90;999.90;;;;;;;;;;5087762;28;20502;-87
2024/01/21 10:03:53;;;;;;;1999.90;999.90;;;;;;;;;;5084930;28;21168;-88
2024/01/21 10:06:21;;;;;;;1999.90;999.90;;;;;;;;;;5076229;28;20056;-88
2024/01/21 10:08:49;;;;;;;1999.90;999.90;;;;;;;;;;5077314;28;20044;-88
2024/01/21 10:11:16;;;;;;;1999.90;999.90;;;;;;;;;;5074815;28;20040;-89
2024/01/21 10:13:42;;;;;;;1999.90;999.90;;;;;;;;;;5073779;28;20105;-88
2024/01/21 10:16:09;;;;;;;1999.90;999.90;;;;;;;;;;5085401;28;20054;-89
2024/01/21 10:18:36;;;;;;;1999.90;999.90;;;;;;;;;;5071216;28;20055;-89
2024/01/21 10:21:04;;;;;;;1999.90;999.90;;;;;;;;;;5083178;28;20124;-89
2024/01/21 10:23:32;;;;;;;1999.90;999.90;;;;;;;;;;5080840;28;20047;-89
2024/01/21 10:26:00;;;;;;;1999.90;999.90;;;;;;;;;;5072076;28;20044;-89
2024/01/21 10:28:26;;;;;;;1999.90;999.90;;;;;;;;;;5077634;28;20048;-88
2024/01/21 10:30:53;;;;;;;1999.90;999.90;;;;;;;;;;5072158;28;20044;-89
2024/01/21 10:33:20;;;;;;;1999.90;999.90;;;;;;;;;;5077016;28;20053;-88
2024/01/21 10:35:48;;;;;;;1999.90;999.90;;;;;;;;;;5074401;28;20044;-89
2024/01/21 10:38:15;;;;;;;1999.90;999.90;;;;;;;;;;5078280;28;20049;-88
2024/01/21 10:40:44;;;;;;;1999.90;999.90;;;;;;;;;;5082600;28;20055;-89
2024/01/21 10:43:13;;;;;;;1999.90;999.90;;;;;;;;;;5077060;28;20049;-88
2024/01/21 10:45:41;;;;;;;1999.90;999.90;;;;;;;;;;5078284;28;20056;-89
2024/01/21 10:48:09;;;;;;;1999.90;999.90;;;;;;;;;;5069054;28;20048;-89
2024/01/21 10:50:36;;;;;;;1999.90;999.90;;;;;;;;;;5076050;28;20131;-89
2024/01/21 10:53:04;;;;;;;1999.90;999.90;;;;;;;;;;5075004;28;20051;-88
2024/01/21 10:55:30;;;;;;;1999.90;999.90;;;;;;;;;;5065906;28;20086;-89
2024/01/21 10:57:58;;;;;;;1999.90;999.90;;;;;;;;;;5079382;28;20048;-88
2024/01/21 11:00:25;;;;;;;1999.90;999.90;;;;;;;;;;5078769;28;20043;-91
2024/01/21 11:03:23;;;;;;;1999.90;999.90;;;;;;;;;;5080685;28;20054;-88
2024/01/21 11:05:52;;;;;;;1999.90;999.90;;;;;;;;;;5072667;28;20057;-86
2024/01/21 11:08:20;;;;;;;1999.90;999.90;;;;;;;;;;5077969;28;20053;-89
2024/01/21 11:10:48;;;;;;;1999.90;999.90;;;;;;;;;;5082266;28;20055;-87
2024/01/21 11:13:41;;;;;;;1999.90;999.90;;;;;;;;;;5079315;28;20041;-87
2024/01/21 11:16:11;;;;;;;1999.90;999.90;;;;;;;;;;5068680;28;20048;-87
2024/01/21 11:18:37;;;;;;;1999.90;999.90;;;;;;;;;;5078145;28;20040;-88
2024/01/21 11:21:04;;;;;;;1999.90;999.90;;;;;;;;;;5075025;28;20044;-86
2024/01/21 11:23:31;;;;;;;1999.90;999.90;;;;;;;;;;5076942;28;20048;-86
2024/01/21 11:25:57;;;;;;;1999.90;999.90;;;;;;;;;;5087640;28;20072;-87
2024/01/21 11:28:26;;;;;;;1999.90;999.90;;;;;;;;;;5081713;28;20122;-86
2024/01/21 11:31:00;;;;;;;1999.90;999.90;;;;;;;;;;5085068;28;20044;-87
2024/01/21 11:33:26;;;;;;;1999.90;999.90;;;;;;;;;;5066563;28;20076;-88
2024/01/21 11:35:54;;;;;;;1999.90;999.90;;;;;;;;;;5080985;28;20127;-88
2024/01/21 11:38:23;;;;;;;1999.90;999.90;;;;;;;;;;5078435;28;20489;-84
2024/01/21 11:41:01;;;;;;;1999.90;999.90;;;;;;;;;;5075801;28;20044;-86
2024/01/21 11:43:28;;;;;;;1999.90;999.90;;;;;;;;;;5078326;28;20051;-86
2024/01/21 11:45:56;;;;;;;1999.90;999.90;;;;;;;;;;5077504;28;20060;-87
2024/01/21 11:48:36;;;;;;;1999.90;999.90;;;;;;;;;;5074226;28;20057;-85
2024/01/21 11:51:02;;;;;;;1999.90;999.90;;;;;;;;;;5068122;28;20550;-88
2024/01/21 11:53:28;;;;;;;1999.90;999.90;;;;;;;;;;5088229;28;20055;-85
2024/01/21 11:55:55;;;;;;;1999.90;999.90;;;;;;;;;;5082010;28;20388;-85
2024/01/21 11:58:21;;;;;;;1999.90;999.90;;;;;;;;;;5084273;28;20127;-85
2024/01/21 12:00:48;;;;;;;1999.90;999.90;;;;;;;;;;5091746;28;20090;-89
2024/01/21 12:03:16;;;;;;;1999.90;999.90;;;;;;;;;;5109234;28;20093;-90
2024/01/21 12:05:42;;;;;;;1999.90;999.90;;;;;;;;;;5102082;28;20088;-88
2024/01/21 12:08:10;;;;;;;1999.90;999.90;;;;;;;;;;5089696;28;20041;-85
2024/01/21 12:10:37;;;;;;;1999.90;999.90;;;;;;;;;;5078753;28;20041;-85
2024/01/21 12:13:06;;;;;;;1999.90;999.90;;;;;;;;;;5084884;28;20128;-85
2024/01/21 12:15:35;;;;;;;1999.90;999.90;;;;;;;;;;5079247;28;20389;-85
2024/01/21 12:18:02;;;;;;;1999.90;999.90;;;;;;;;;;5074591;28;20044;-85
2024/01/21 12:20:30;;;;;;;1999.90;999.90;;;;;;;;;;5084709;28;20052;-84
2024/01/21 12:22:57;;;;;;;1999.90;999.90;;;;;;;;;;5076306;28;20045;-84
2024/01/21 12:25:24;;;;;;;1999.90;999.90;;;;;;;;;;5088730;28;20048;-83
2024/01/21 12:27:55;;;;;;;1999.90;999.90;;;;;;;;;;5073460;28;20550;-85
2024/01/21 12:30:25;;;;;;;1999.90;999.90;;;;;;;;;;5080082;28;20049;-87
2024/01/21 12:32:52;;;;;;;1999.90;999.90;;;;;;;;;;5077270;28;20049;-85
2024/01/21 12:35:19;;;;;;;1999.90;999.90;;;;;;;;;;5088879;28;20044;-85
2024/01/21 12:37:48;;;;;;;1999.90;999.90;;;;;;;;;;5080137;28;20041;-84
2024/01/21 12:40:15;;;;;;;1999.90;999.90;;;;;;;;;;5080440;28;20493;-85
2024/01/21 12:42:41;;;;;;;1999.90;999.90;;;;;;;;;;5076952;28;20084;-85
2024/01/21 12:45:09;;;;;;;1999.90;999.90;;;;;;;;;;5077675;28;20122;-86
2024/01/21 12:47:38;;;;;;;1999.90;999.90;;;;;;;;;;5076453;28;20128;-86
2024/01/21 12:50:07;;;;;;;1999.90;999.90;;;;;;;;;;5067272;28;20048;-86
2024/01/21 12:52:40;;;;;;;1999.90;999.90;;;;;;;;;;5081669;28;20492;-86
2024/01/21 12:55:09;;;;;;;1999.90;999.90;;;;;;;;;;5076718;28;20052;-86
2024/01/21 12:57:35;;;;;;;1999.90;999.90;;;;;;;;;;5078452;28;20044;-86
2024/01/21 13:00:03;;;;;;;1999.90;999.90;;;;;;;;;;5083476;28;20047;-86
2024/01/21 13:02:29;;;;;;;1999.90;999.90;;;;;;;;;;5083821;28;20052;-86
2024/01/21 13:04:56;;;;;;;1999.90;999.90;;;;;;;;;;5078220;28;20067;-86
2024/01/21 13:07:23;;;;;;;1999.90;999.90;;;;;;;;;;5072777;28;20049;-86
2024/01/21 13:09:49;;;;;;;1999.90;999.90;;;;;;;;;;5077546;28;20147;-86
2024/01/21 13:12:17;;;;;;;1999.90;999.90;;;;;;;;;;5077894;28;20043;-85
2024/01/21 13:14:44;;;;;;;1999.90;999.90;;;;;;;;;;5069357;28;20048;-88
2024/01/21 13:17:11;;;;;;;1999.90;999.90;;;;;;;;;;5072269;28;20044;-86
2024/01/21 13:19:38;;;;;;;1999.90;999.90;;;;;;;;;;5073569;28;20451;-86
2024/01/21 13:22:06;;;;;;;1999.90;999.90;;;;;;;;;;5070093;28;20051;-85
2024/01/21 13:24:34;;;;;;;1999.90;999.90;;;;;;;;;;5074685;28;20055;-85
2024/01/21 13:27:07;;;;;;;1999.90;999.90;;;;;;;;;;5068695;28;20074;-86
2024/01/21 13:32:21;;;;;;;1999.90;999.90;;;;;;;;;;5082669;28;20204;-86
2024/01/21 13:34:47;;;;;;;1999.90;999.90;;;;;;;;;;5078251;28;20049;-86
2024/01/21 13:37:15;;;;;;;1999.90;999.90;;;;;;;;;;5080530;28;20044;-86
2024/01/21 13:39:42;;;;;;;1999.90;999.90;;;;;;;;;;5078493;28;20131;-85
2024/01/21 13:42:09;;;;;;;1999.90;999.90;;;;;;;;;;5086247;28;20492;-87
2024/01/21 13:44:37;;;;;;;1999.90;999.90;;;;;;;;;;5068897;28;20041;-84